createdAt,value
2023-05-24T00:01:27.664Z,83.62
2023-05-24T00:04:30.445Z,83.53
2023-05-24T00:07:32.712Z,83.33
2023-05-24T00:10:34.846Z,83.63
2023-05-24T00:13:36.484Z,83.48
2023-05-24T00:16:38.626Z,83.38
2023-05-24T00:19:40.332Z,83.44
2023-05-24T00:22:42.537Z,83.53
2023-05-24T00:25:44.961Z,83.54
2023-05-24T00:28:46.980Z,83.24
2023-05-24T00:31:48.619Z,83.06
2023-05-24T00:34:50.826Z,82.80
2023-05-24T00:37:52.829Z,83.02
2023-05-24T00:40:58.138Z,83.04
2023-05-24T00:44:00.608Z,83.17
2023-05-24T00:47:04.577Z,82.89
2023-05-24T00:50:09.210Z,83.17
2023-05-24T00:53:11.430Z,83.33
2023-05-24T00:56:15.651Z,83.52
2023-05-24T00:59:18.285Z,83.54
2023-05-24T01:02:20.716Z,83.63
2023-05-24T01:05:24.521Z,84.08
2023-05-24T01:08:54.848Z,84.80
2023-05-24T01:12:11.400Z,85.29
2023-05-24T01:15:47.178Z,85.75
2023-05-24T01:18:55.240Z,85.32
2023-05-24T01:22:09.197Z,85.69
2023-05-24T01:25:29.021Z,85.98
2023-05-24T01:28:34.241Z,85.81
2023-05-24T01:31:37.115Z,86.39
2023-05-24T01:34:39.149Z,86.57
2023-05-24T01:37:41.235Z,86.68
2023-05-24T01:40:44.296Z,87.25
2023-05-24T01:43:56.384Z,85.95
2023-05-24T01:47:10.028Z,84.96
2023-05-24T01:50:20.166Z,83.91
2023-05-24T01:53:26.315Z,83.43
2023-05-24T01:56:32.059Z,82.96
2023-05-24T01:59:35.136Z,83.08
2023-05-24T02:02:38.303Z,83.09
2023-05-24T02:05:40.544Z,83.34
2023-05-24T02:08:42.563Z,82.97
2023-05-24T02:11:44.660Z,82.50
2023-05-24T02:14:46.311Z,82.22
2023-05-24T02:17:48.798Z,82.09
2023-05-24T02:20:51.343Z,82.14
2023-05-24T02:23:53.416Z,81.62
2023-05-24T02:26:56.151Z,81.41
2023-05-24T02:29:57.800Z,81.43
2023-05-24T02:33:00.681Z,81.30
2023-05-24T02:36:02.590Z,81.14
2023-05-24T02:39:04.788Z,81.10
2023-05-24T02:42:07.286Z,80.81
2023-05-24T02:45:09.558Z,80.53
2023-05-24T02:48:11.636Z,80.62
2023-05-24T02:51:13.838Z,80.22
2023-05-24T02:54:17.749Z,80.16
2023-05-24T02:57:19.583Z,79.63
2023-05-24T03:00:21.925Z,79.33
2023-05-24T03:03:25.294Z,78.59
2023-05-24T03:06:27.101Z,78.70
2023-05-24T03:09:29.132Z,78.58
2023-05-24T03:12:31.219Z,78.35
2023-05-24T03:15:33.290Z,78.41
2023-05-24T03:18:34.944Z,78.57
2023-05-24T03:21:36.641Z,78.57
2023-05-24T03:24:40.184Z,78.58
2023-05-24T03:27:43.224Z,79.01
2023-05-24T03:30:45.572Z,79.01
2023-05-24T03:33:47.852Z,78.45
2023-05-24T03:36:49.934Z,78.42
2023-05-24T03:39:52.617Z,78.46
2023-05-24T03:43:23.586Z,79.01
2023-05-24T03:46:32.093Z,79.24
2023-05-24T03:49:35.715Z,79.36
2023-05-24T03:52:37.800Z,78.84
2023-05-24T03:55:39.535Z,79.65
2023-05-24T03:58:42.430Z,79.57
2023-05-24T04:01:44.606Z,80.11
2023-05-24T04:04:46.372Z,80.15
2023-05-24T04:07:48.672Z,80.63
2023-05-24T04:10:50.808Z,80.61
2023-05-24T04:13:52.438Z,80.37
2023-05-24T04:16:55.218Z,80.46
2023-05-24T04:19:56.979Z,80.64
2023-05-24T04:22:59.392Z,80.73
2023-05-24T04:26:01.751Z,80.55
2023-05-24T04:29:04.330Z,80.88
2023-05-24T04:32:07.131Z,81.04
2023-05-24T04:35:09.628Z,80.60
2023-05-24T04:38:12.729Z,80.10
2023-05-24T04:41:14.896Z,79.83
2023-05-24T04:44:17.580Z,80.31
2023-05-24T04:47:19.191Z,80.32
2023-05-24T04:50:20.829Z,80.49
2023-05-24T04:53:23.250Z,79.79
2023-05-24T04:56:24.897Z,79.95
2023-05-24T04:59:27.094Z,79.60
2023-05-24T05:02:29.291Z,79.43
2023-05-24T05:05:31.415Z,79.85
2023-05-24T05:08:33.494Z,79.50
2023-05-24T05:11:35.782Z,79.21
2023-05-24T05:14:37.786Z,78.91
2023-05-24T05:17:39.512Z,79.47
2023-05-24T05:20:41.664Z,79.55
2023-05-24T05:23:45.533Z,78.88
2023-05-24T05:26:47.696Z,79.13
2023-05-24T05:29:49.427Z,78.71
2023-05-24T05:32:51.341Z,79.40
2023-05-24T05:35:54.957Z,78.77
2023-05-24T05:38:57.080Z,78.29
2023-05-24T05:41:59.346Z,78.66
2023-05-24T05:45:01.259Z,78.56
2023-05-24T05:48:03.514Z,78.25
2023-05-24T05:51:05.146Z,78.64
2023-05-24T05:54:15.437Z,78.74
2023-05-24T05:57:19.602Z,78.22
2023-05-24T06:00:22.926Z,78.22
2023-05-24T06:03:24.707Z,77.84
2023-05-24T06:06:26.427Z,77.96
2023-05-24T06:09:31.040Z,77.89
2023-05-24T06:12:32.637Z,78.22
2023-05-24T06:15:34.824Z,77.31
2023-05-24T06:18:36.852Z,77.57
2023-05-24T06:21:41.060Z,78.18
2023-05-24T06:24:43.864Z,77.55
2023-05-24T06:27:46.120Z,77.08
2023-05-24T06:30:48.382Z,77.69
2023-05-24T06:34:02.756Z,76.93
2023-05-24T06:37:10.274Z,77.13
2023-05-24T06:40:12.941Z,76.59
2023-05-24T06:43:14.591Z,76.16
2023-05-24T06:46:16.525Z,76.25
2023-05-24T06:49:18.257Z,76.87
2023-05-24T06:52:20.272Z,75.57
2023-05-24T06:55:22.135Z,75.23
2023-05-24T06:58:24.731Z,75.20
2023-05-24T07:01:27.638Z,74.98
2023-05-24T07:04:29.846Z,75.22
2023-05-24T07:07:32.601Z,74.60
2023-05-24T07:10:34.777Z,73.80
2023-05-24T07:13:36.563Z,73.59
2023-05-24T07:16:38.624Z,73.80
2023-05-24T07:19:41.786Z,73.46
2023-05-24T07:22:44.353Z,72.28
2023-05-24T07:25:46.560Z,72.62
2023-05-24T07:28:48.657Z,72.54
2023-05-24T07:31:50.764Z,71.63
2023-05-24T07:34:53.073Z,71.90
2023-05-24T07:37:55.247Z,71.15
2023-05-24T07:41:01.361Z,71.71
2023-05-24T07:44:03.948Z,71.39
2023-05-24T07:47:06.152Z,70.73
2023-05-24T07:50:08.670Z,69.78
2023-05-24T07:53:10.693Z,69.44
2023-05-24T07:56:12.339Z,68.74
2023-05-24T07:59:15.819Z,69.49
2023-05-24T08:02:18.722Z,70.00
2023-05-24T08:05:20.582Z,70.02
2023-05-24T08:08:22.619Z,68.98
2023-05-24T08:11:24.875Z,67.93
2023-05-24T08:14:26.932Z,68.40
2023-05-24T08:17:29.904Z,68.21
2023-05-24T08:20:36.108Z,67.08
2023-05-24T08:23:38.331Z,66.41
2023-05-24T08:26:41.235Z,67.78
2023-05-24T08:29:43.387Z,68.13
2023-05-24T08:32:45.543Z,66.98
2023-05-24T08:35:47.315Z,66.56
2023-05-24T08:38:49.406Z,66.87
2023-05-24T08:42:04.880Z,66.33
2023-05-24T08:45:15.353Z,65.55
2023-05-24T08:48:18.580Z,63.89
2023-05-24T08:51:20.616Z,65.83
2023-05-24T08:54:22.883Z,66.03
2023-05-24T08:57:27.303Z,64.04
2023-05-24T09:00:29.508Z,64.59
2023-05-24T09:03:33.516Z,65.06
2023-05-24T09:06:36.070Z,65.23
2023-05-24T09:09:45.364Z,64.12
2023-05-24T09:12:54.957Z,64.72
2023-05-24T09:15:56.946Z,62.80
2023-05-24T09:18:58.614Z,63.91
2023-05-24T09:22:01.048Z,64.06
2023-05-24T09:25:05.955Z,64.56
2023-05-24T09:28:09.257Z,63.73
2023-05-24T09:31:12.396Z,64.37
2023-05-24T09:34:17.446Z,64.55
2023-05-24T09:37:25.218Z,64.07
2023-05-24T09:40:29.727Z,64.08
2023-05-24T09:43:34.109Z,63.61
2023-05-24T09:46:38.792Z,62.35
2023-05-24T09:49:41.681Z,62.14
2023-05-24T09:52:45.843Z,61.68
2023-05-24T09:55:49.004Z,62.19
2023-05-24T09:58:52.637Z,60.12
2023-05-24T10:02:10.766Z,59.81
2023-05-24T10:05:15.728Z,59.23
2023-05-24T10:08:19.404Z,58.83
2023-05-24T10:11:21.776Z,59.88
2023-05-24T10:14:25.439Z,60.49
2023-05-24T10:17:30.086Z,59.85
2023-05-24T10:20:31.739Z,60.10
2023-05-24T10:23:36.595Z,59.55
2023-05-24T10:26:39.923Z,59.39
2023-05-24T10:29:46.995Z,59.98
2023-05-24T10:32:49.503Z,58.59
2023-05-24T10:35:52.880Z,58.41
2023-05-24T10:38:56.469Z,57.48
2023-05-24T10:42:03.425Z,58.34
2023-05-24T10:45:36.281Z,57.77
2023-05-24T10:48:40.658Z,57.62
2023-05-24T10:51:42.440Z,56.73
2023-05-24T10:55:11.671Z,57.50
2023-05-24T10:58:13.746Z,56.87
2023-05-24T11:01:30.370Z,56.41
2023-05-24T11:04:34.174Z,54.48
2023-05-24T11:07:43.023Z,53.25
2023-05-24T11:10:45.535Z,53.41
2023-05-24T11:13:47.962Z,54.00
2023-05-24T11:16:51.980Z,54.57
2023-05-24T11:19:55.672Z,54.31
2023-05-24T11:22:59.762Z,53.93
2023-05-24T11:26:04.501Z,53.70
2023-05-24T11:29:07.568Z,52.62
2023-05-24T11:32:10.166Z,52.03
2023-05-24T11:35:12.545Z,52.19
2023-05-24T11:38:15.948Z,51.52
2023-05-24T11:41:17.979Z,51.94
2023-05-24T11:44:20.115Z,52.81
2023-05-24T11:47:22.712Z,52.20
2023-05-24T11:50:26.676Z,52.19
2023-05-24T11:53:30.848Z,52.89
2023-05-24T11:56:34.271Z,51.43
2023-05-24T11:59:38.668Z,51.99
2023-05-24T12:02:40.574Z,52.09
2023-05-24T12:05:43.062Z,51.51
2023-05-24T12:08:45.267Z,51.44
2023-05-24T12:11:49.850Z,51.20
2023-05-24T12:14:56.045Z,51.06
2023-05-24T12:17:58.707Z,51.35
2023-05-24T12:21:00.405Z,50.74
2023-05-24T12:24:10.613Z,50.17
2023-05-24T12:27:12.699Z,50.94
2023-05-24T12:30:22.435Z,50.36
2023-05-24T12:33:24.404Z,50.06
2023-05-24T12:36:28.671Z,49.76
2023-05-24T12:39:36.487Z,48.91
2023-05-24T12:42:39.120Z,48.82
2023-05-24T12:45:41.526Z,49.10
2023-05-24T12:48:43.374Z,48.97
2023-05-24T12:51:47.166Z,48.70
2023-05-24T12:54:50.721Z,48.89
2023-05-24T12:57:54.483Z,49.23
2023-05-24T13:00:56.382Z,47.59
2023-05-24T13:03:58.884Z,47.91
2023-05-24T13:07:02.865Z,48.33
2023-05-24T13:10:06.674Z,48.68
2023-05-24T13:13:08.811Z,47.33
2023-05-24T13:16:10.869Z,47.88
2023-05-24T13:19:13.290Z,48.27
2023-05-24T13:22:15.454Z,47.02
2023-05-24T13:25:18.022Z,46.34
2023-05-24T13:28:20.643Z,45.76
2023-05-24T13:31:22.279Z,44.33
2023-05-24T13:34:25.984Z,44.68
2023-05-24T13:37:27.916Z,44.47
2023-05-24T13:40:29.587Z,43.57
2023-05-24T13:43:32.310Z,42.66
2023-05-24T13:46:36.256Z,41.85
2023-05-24T13:49:38.135Z,40.01
2023-05-24T13:52:39.802Z,40.69
2023-05-24T13:55:41.884Z,41.56
2023-05-24T13:58:43.628Z,41.45
2023-05-24T14:01:46.400Z,42.24
2023-05-24T14:04:48.590Z,42.80
2023-05-24T14:07:51.548Z,43.18
2023-05-24T14:10:53.706Z,43.24
2023-05-24T14:14:43.651Z,44.07
2023-05-24T14:17:17.177Z,44.52
2023-05-24T14:20:19.410Z,44.80
2023-05-24T14:23:21.210Z,45.77
2023-05-24T14:26:23.769Z,46.06
2023-05-24T14:29:26.629Z,46.95
2023-05-24T14:32:28.724Z,47.32
2023-05-24T14:35:33.386Z,46.98
2023-05-24T14:38:35.661Z,47.79
2023-05-24T14:41:37.347Z,48.18
2023-05-24T14:44:39.675Z,48.45
2023-05-24T14:47:41.791Z,49.12
2023-05-24T14:50:44.351Z,49.06
2023-05-24T14:53:46.418Z,49.60
2023-05-24T14:56:48.547Z,50.22
2023-05-24T14:59:51.321Z,50.67
2023-05-24T15:02:53.521Z,51.54
2023-05-24T15:05:55.581Z,52.28
2023-05-24T15:08:57.273Z,53.26
2023-05-24T15:11:59.348Z,53.81
2023-05-24T15:15:01.356Z,54.41
2023-05-24T15:18:04.130Z,54.34
2023-05-24T15:21:05.918Z,55.20
2023-05-24T15:24:08.718Z,55.45
2023-05-24T15:27:11.078Z,55.71
2023-05-24T15:30:13.418Z,55.50
2023-05-24T15:33:17.088Z,55.74
2023-05-24T15:36:19.485Z,55.60
2023-05-24T15:39:21.674Z,56.05
2023-05-24T15:42:24.683Z,55.63
2023-05-24T15:45:26.900Z,55.19
2023-05-24T15:48:29.009Z,55.67
2023-05-24T15:54:36.477Z,55.54
2023-05-24T15:57:38.624Z,56.19
2023-05-24T16:00:40.801Z,56.19
2023-05-24T16:03:43.041Z,56.51
2023-05-24T16:06:45.638Z,56.60
2023-05-24T16:09:47.841Z,57.32
2023-05-24T16:12:49.514Z,57.49
2023-05-24T16:15:51.821Z,58.03
2023-05-24T16:18:53.503Z,57.46
2023-05-24T16:21:56.319Z,57.68
2023-05-24T16:24:57.968Z,58.15
2023-05-24T16:28:00.477Z,57.72
2023-05-24T16:31:03.973Z,57.82
2023-05-24T16:34:06.733Z,58.45
2023-05-24T16:37:10.497Z,58.97
2023-05-24T16:40:12.953Z,58.96
2023-05-24T16:43:14.578Z,58.70
2023-05-24T16:46:17.206Z,59.29
2023-05-24T16:49:18.878Z,59.23
2023-05-24T16:52:20.940Z,58.85
2023-05-24T16:55:23.066Z,59.25
2023-05-24T16:58:29.691Z,59.43
2023-05-24T17:01:32.000Z,60.01
2023-05-24T17:04:34.524Z,60.02
2023-05-24T17:07:37.025Z,60.28
2023-05-24T17:10:39.607Z,60.78
2023-05-24T17:13:41.947Z,61.31
2023-05-24T17:16:43.680Z,61.35
2023-05-24T17:19:46.169Z,61.29
2023-05-24T17:22:49.437Z,61.40
2023-05-24T17:25:52.215Z,61.72
2023-05-24T17:28:54.737Z,61.66
2023-05-24T17:31:56.460Z,61.50
2023-05-24T17:34:58.564Z,61.71
2023-05-24T17:38:00.614Z,62.06
2023-05-24T17:41:02.806Z,62.08
2023-05-24T17:44:05.696Z,62.18
2023-05-24T17:47:07.863Z,62.42
2023-05-24T17:50:10.623Z,62.51
2023-05-24T17:53:29.857Z,62.81
2023-05-24T17:56:33.331Z,63.08
2023-05-24T17:59:35.505Z,62.88
2023-05-24T18:02:37.138Z,63.19
2023-05-24T18:05:39.052Z,63.34
2023-05-24T18:08:43.898Z,63.85
2023-05-24T18:11:45.929Z,63.62
2023-05-24T18:14:48.012Z,63.52
2023-05-24T18:17:49.722Z,63.53
2023-05-24T18:20:52.007Z,63.36
2023-05-24T18:23:53.616Z,63.77
2023-05-24T18:26:55.832Z,63.79
2023-05-24T18:29:59.268Z,64.14
2023-05-24T18:33:07.147Z,64.20
2023-05-24T18:36:10.731Z,64.75
2023-05-24T18:39:13.159Z,64.57
2023-05-24T18:42:15.868Z,64.72
2023-05-24T18:45:17.985Z,64.86
2023-05-24T18:48:20.581Z,65.00
2023-05-24T18:51:22.469Z,65.25
2023-05-24T18:54:25.110Z,65.36
2023-05-24T18:57:26.974Z,65.39
2023-05-24T19:00:29.142Z,65.29
2023-05-24T19:03:31.070Z,65.11
2023-05-24T19:06:33.634Z,65.40
2023-05-24T19:09:36.621Z,65.78
2023-05-24T19:12:38.282Z,65.45
2023-05-24T19:15:40.253Z,65.74
2023-05-24T19:18:44.256Z,65.70
2023-05-24T19:21:46.839Z,65.99
2023-05-24T19:24:48.921Z,66.07
2023-05-24T19:30:56.422Z,66.65
2023-05-24T19:34:00.382Z,66.82
2023-05-24T19:37:03.534Z,67.02
2023-05-24T19:40:06.284Z,67.03
2023-05-24T19:43:07.942Z,67.29
2023-05-24T19:46:11.054Z,67.33
2023-05-24T19:49:12.730Z,67.87
2023-05-24T19:52:17.199Z,67.69
2023-05-24T19:55:18.993Z,67.98
2023-05-24T19:58:21.052Z,67.90
2023-05-24T20:01:22.781Z,67.82
2023-05-24T20:04:25.088Z,68.60
2023-05-24T20:07:26.765Z,68.21
2023-05-24T20:10:31.790Z,68.66
2023-05-24T20:13:33.874Z,68.29
2023-05-24T20:16:35.761Z,68.59
2023-05-24T20:19:38.313Z,68.56
2023-05-24T20:22:40.471Z,68.85
2023-05-24T20:25:42.768Z,68.98
2023-05-24T20:28:45.285Z,69.26
2023-05-24T20:31:47.402Z,69.08
2023-05-24T20:34:49.108Z,69.32
2023-05-24T20:37:50.749Z,69.06
2023-05-24T20:40:52.735Z,69.10
2023-05-24T20:43:54.849Z,68.81
2023-05-24T20:46:56.553Z,68.81
2023-05-24T20:49:58.680Z,68.51
2023-05-24T20:53:00.375Z,68.75
2023-05-24T20:56:02.113Z,68.81
2023-05-24T20:59:04.397Z,68.95
2023-05-24T21:02:06.468Z,68.79
2023-05-24T21:05:09.129Z,69.14
2023-05-24T21:08:11.206Z,68.92
2023-05-24T21:11:13.417Z,68.68
2023-05-24T21:14:15.744Z,68.24
2023-05-24T21:17:17.447Z,67.83
2023-05-24T21:20:19.115Z,67.65
2023-05-24T21:23:21.250Z,67.11
2023-05-24T21:26:22.874Z,67.23
2023-05-24T21:29:25.059Z,66.61
2023-05-24T21:32:29.963Z,66.07
2023-05-24T21:35:32.650Z,66.40
2023-05-24T21:38:34.854Z,65.60
2023-05-24T21:41:37.744Z,65.13
2023-05-24T21:44:39.895Z,65.10
2023-05-24T21:47:42.821Z,64.31
2023-05-24T21:50:44.686Z,64.44
2023-05-24T21:53:47.460Z,64.87
2023-05-24T21:56:49.548Z,64.93
2023-05-24T21:59:52.015Z,64.55
2023-05-24T22:02:54.260Z,64.56
2023-05-24T22:05:56.441Z,65.23
2023-05-24T22:09:01.760Z,64.89
2023-05-24T22:12:04.278Z,65.48
2023-05-24T22:15:06.952Z,64.80
2023-05-24T22:18:08.766Z,64.78
2023-05-24T22:21:10.884Z,64.59
2023-05-24T22:24:13.682Z,64.48
2023-05-24T22:27:16.896Z,64.27
2023-05-24T22:30:19.468Z,63.93
2023-05-24T22:33:21.527Z,63.85
2023-05-24T22:36:23.154Z,63.80
2023-05-24T22:39:25.870Z,63.06
2023-05-24T22:42:27.955Z,62.78
2023-05-24T22:45:30.050Z,62.85
2023-05-24T22:48:33.874Z,62.77
2023-05-24T22:51:37.695Z,62.44
2023-05-24T22:54:39.876Z,62.79
2023-05-24T22:57:41.631Z,62.30
2023-05-24T23:00:43.650Z,62.17
2023-05-24T23:03:45.414Z,62.36
2023-05-24T23:06:47.243Z,62.06
2023-05-24T23:09:50.049Z,62.08
2023-05-24T23:12:52.102Z,61.89
2023-05-24T23:15:58.680Z,61.85
2023-05-24T23:19:00.658Z,61.40
2023-05-24T23:22:03.500Z,61.51
2023-05-24T23:25:06.649Z,61.77
2023-05-24T23:28:09.672Z,62.07
2023-05-24T23:31:11.995Z,62.06
2023-05-24T23:34:14.068Z,62.04
2023-05-24T23:37:15.787Z,62.59
2023-05-24T23:40:17.815Z,61.80
2023-05-24T23:43:20.038Z,61.86
2023-05-24T23:46:21.746Z,61.97
2023-05-24T23:49:24.426Z,62.19
2023-05-24T23:52:27.506Z,62.60
2023-05-24T23:55:29.590Z,62.89
2023-05-24T23:58:32.071Z,62.34
